createdAt,value
2022-10-27T00:01:03.236Z,15.48
2022-10-27T00:03:33.379Z,14.63
2022-10-27T00:06:06.550Z,13.32
2022-10-27T00:08:37.619Z,14.80
2022-10-27T00:11:08.207Z,14.10
2022-10-27T00:13:38.771Z,14.20
2022-10-27T00:16:17.563Z,14.63
2022-10-27T00:18:47.717Z,15.88
2022-10-27T00:21:20.717Z,13.65
2022-10-27T00:23:51.672Z,13.85
2022-10-27T00:26:22.327Z,16.45
2022-10-27T00:28:52.428Z,15.20
2022-10-27T00:31:22.806Z,14.85
2022-10-27T00:33:52.873Z,14.40
2022-10-27T00:36:24.886Z,16.33
2022-10-27T00:38:58.460Z,15.40
2022-10-27T00:41:31.358Z,14.57
2022-10-27T00:44:23.129Z,14.75
2022-10-27T00:46:53.379Z,14.45
2022-10-27T00:49:28.222Z,14.77
2022-10-27T00:52:08.663Z,15.05
2022-10-27T00:54:41.676Z,15.38
2022-10-27T00:57:12.543Z,15.45
2022-10-27T00:59:43.108Z,18.27
2022-10-27T01:02:14.502Z,17.23
2022-10-27T01:05:00.300Z,18.88
2022-10-27T01:07:31.043Z,19.35
2022-10-27T01:10:01.266Z,17.70
2022-10-27T01:12:32.504Z,20.42
2022-10-27T01:15:03.804Z,17.42
2022-10-27T01:17:58.639Z,18.90
2022-10-27T01:20:59.435Z,18.88
2022-10-27T01:23:40.135Z,17.30
2022-10-27T01:26:12.793Z,19.23
2022-10-27T01:29:21.895Z,17.60
2022-10-27T01:31:59.927Z,15.98
2022-10-27T01:34:44.645Z,18.40
2022-10-27T01:37:23.498Z,18.00
2022-10-27T01:40:02.307Z,18.65
2022-10-27T01:42:50.220Z,17.95
2022-10-27T01:45:29.670Z,19.83
2022-10-27T01:48:00.648Z,20.40
2022-10-27T01:50:45.457Z,20.05
2022-10-27T01:53:25.117Z,19.73
2022-10-27T01:56:36.560Z,21.08
2022-10-27T01:59:33.735Z,21.00
2022-10-27T02:02:18.540Z,19.23
2022-10-27T02:05:00.403Z,20.48
2022-10-27T02:07:49.637Z,20.42
2022-10-27T02:10:32.636Z,20.63
2022-10-27T02:13:04.938Z,21.02
2022-10-27T02:15:48.594Z,22.10
2022-10-27T02:18:27.900Z,21.90
2022-10-27T02:23:35.084Z,18.83
2022-10-27T02:26:29.601Z,18.58
2022-10-27T02:29:07.107Z,19.17
2022-10-27T02:31:43.579Z,20.02
2022-10-27T02:34:15.792Z,20.63
2022-10-27T02:36:46.798Z,19.58
2022-10-27T02:39:16.985Z,20.20
2022-10-27T02:41:47.081Z,18.92
2022-10-27T02:44:17.258Z,19.23
2022-10-27T02:46:50.367Z,19.85
2022-10-27T02:49:23.102Z,22.45
2022-10-27T02:51:53.243Z,19.27
2022-10-27T02:54:23.440Z,21.60
2022-10-27T02:56:53.509Z,18.88
2022-10-27T02:59:23.745Z,19.67
2022-10-27T03:01:54.893Z,19.52
2022-10-27T03:04:25.124Z,18.23
2022-10-27T03:06:55.206Z,20.67
2022-10-27T03:09:25.443Z,18.08
2022-10-27T03:11:55.644Z,19.30
2022-10-27T03:14:25.862Z,18.23
2022-10-27T03:16:56.199Z,19.30
2022-10-27T03:19:26.623Z,17.70
2022-10-27T03:21:59.927Z,18.52
2022-10-27T03:24:31.882Z,19.27
2022-10-27T03:27:02.952Z,17.88
2022-10-27T03:29:33.128Z,17.45
2022-10-27T03:32:03.392Z,18.30
2022-10-27T03:34:33.470Z,17.15
2022-10-27T03:37:03.557Z,18.40
2022-10-27T03:39:33.836Z,19.65
2022-10-27T03:42:04.282Z,18.95
2022-10-27T03:44:34.424Z,16.98
2022-10-27T03:47:04.561Z,19.15
2022-10-27T03:49:34.623Z,16.55
2022-10-27T03:52:04.952Z,18.48
2022-10-27T03:54:35.175Z,18.10
2022-10-27T03:57:12.211Z,17.27
2022-10-27T03:59:42.300Z,18.05
2022-10-27T04:02:12.457Z,17.25
2022-10-27T04:04:42.603Z,18.25
2022-10-27T04:07:12.639Z,18.58
2022-10-27T04:09:42.783Z,17.52
2022-10-27T04:12:12.864Z,18.08
2022-10-27T04:14:42.915Z,18.75
2022-10-27T04:17:12.997Z,18.25
2022-10-27T04:19:43.593Z,19.08
2022-10-27T04:22:13.674Z,17.20
2022-10-27T04:24:43.773Z,18.90
2022-10-27T04:27:14.152Z,17.83
2022-10-27T04:29:44.391Z,17.63
2022-10-27T04:32:14.438Z,18.33
2022-10-27T04:34:44.551Z,19.95
2022-10-27T04:37:14.596Z,19.45
2022-10-27T04:39:44.754Z,18.13
2022-10-27T04:42:14.835Z,18.95
2022-10-27T04:44:45.021Z,18.10
2022-10-27T04:47:15.152Z,19.30
2022-10-27T04:49:45.192Z,19.25
2022-10-27T04:52:15.382Z,19.92
2022-10-27T04:54:45.485Z,19.50
2022-10-27T04:57:15.585Z,19.42
2022-10-27T04:59:45.759Z,20.33
2022-10-27T05:02:15.888Z,19.17
2022-10-27T05:04:46.072Z,19.10
2022-10-27T05:07:16.143Z,20.13
2022-10-27T05:09:46.333Z,19.70
2022-10-27T05:12:16.366Z,19.98
2022-10-27T05:14:46.526Z,18.45
2022-10-27T05:17:19.379Z,20.90
2022-10-27T05:19:49.833Z,18.85
2022-10-27T05:22:20.005Z,19.27
2022-10-27T05:24:50.011Z,19.58
2022-10-27T05:27:20.137Z,21.83
2022-10-27T05:29:50.186Z,21.00
2022-10-27T05:32:20.401Z,17.65
2022-10-27T05:34:50.537Z,17.55
2022-10-27T05:37:20.674Z,19.48
2022-10-27T05:39:50.853Z,18.92
2022-10-27T05:42:21.033Z,18.10
2022-10-27T05:44:51.290Z,18.60
2022-10-27T05:47:21.506Z,15.85
2022-10-27T05:49:51.626Z,15.25
2022-10-27T05:52:21.702Z,15.48
2022-10-27T05:54:51.792Z,13.93
2022-10-27T05:57:21.944Z,15.10
2022-10-27T05:59:52.069Z,15.68
2022-10-27T06:02:22.261Z,13.35
2022-10-27T06:04:52.387Z,14.93
2022-10-27T06:07:22.571Z,15.27
2022-10-27T06:09:52.628Z,15.52
2022-10-27T06:12:23.076Z,16.98
2022-10-27T06:14:53.180Z,14.85
2022-10-27T06:17:23.315Z,16.33
2022-10-27T06:19:53.400Z,16.20
2022-10-27T06:22:23.733Z,17.08
2022-10-27T06:24:54.003Z,17.40
2022-10-27T06:27:24.106Z,16.88
2022-10-27T06:29:54.236Z,17.45
2022-10-27T06:34:59.627Z,15.05
2022-10-27T06:37:29.755Z,15.23
2022-10-27T06:40:01.205Z,16.38
2022-10-27T06:42:42.972Z,15.18
2022-10-27T06:45:20.152Z,15.38
2022-10-27T06:48:02.225Z,18.58
2022-10-27T06:50:32.991Z,15.38
2022-10-27T06:53:03.618Z,16.05
2022-10-27T06:55:33.889Z,20.25
2022-10-27T06:58:05.643Z,17.25
2022-10-27T07:00:37.661Z,16.65
2022-10-27T07:05:41.158Z,16.75
2022-10-27T07:08:11.340Z,17.33
2022-10-27T07:10:41.698Z,16.58
2022-10-27T07:13:11.876Z,17.75
2022-10-27T07:15:41.935Z,19.48
2022-10-27T07:18:12.164Z,17.05
2022-10-27T07:20:45.624Z,17.58
2022-10-27T07:23:15.851Z,19.42
2022-10-27T07:25:50.225Z,17.88
2022-10-27T07:28:21.143Z,23.42
2022-10-27T07:30:56.277Z,18.33
2022-10-27T07:33:26.478Z,19.13
2022-10-27T07:35:56.521Z,16.55
2022-10-27T07:38:26.654Z,18.05
2022-10-27T07:40:57.268Z,16.27
2022-10-27T07:43:27.507Z,17.75
2022-10-27T07:45:58.213Z,16.25
2022-10-27T07:48:28.376Z,16.05
2022-10-27T07:50:58.608Z,16.30
2022-10-27T07:53:28.868Z,16.70
2022-10-27T07:55:59.267Z,16.80
2022-10-27T07:58:29.750Z,16.33
2022-10-27T08:01:00.629Z,18.13
2022-10-27T08:03:31.995Z,18.65
2022-10-27T08:06:03.335Z,16.83
2022-10-27T08:08:36.157Z,19.73
2022-10-27T08:11:06.435Z,16.45
2022-10-27T08:13:36.830Z,17.20
2022-10-27T08:16:07.271Z,16.15
2022-10-27T08:18:39.103Z,18.35
2022-10-27T08:21:09.451Z,19.30
2022-10-27T08:23:40.398Z,15.63
2022-10-27T08:26:10.854Z,17.00
2022-10-27T08:28:40.958Z,19.38
2022-10-27T08:31:11.101Z,19.83
2022-10-27T08:33:41.274Z,20.17
2022-10-27T08:36:11.976Z,22.52
2022-10-27T08:38:42.088Z,17.67
2022-10-27T08:41:25.072Z,21.58
2022-10-27T08:44:15.116Z,20.88
2022-10-27T08:46:54.016Z,21.77
2022-10-27T08:49:41.153Z,18.77
2022-10-27T08:52:17.994Z,19.65
2022-10-27T08:54:52.129Z,18.60
2022-10-27T08:57:28.548Z,21.50
2022-10-27T08:59:59.899Z,22.92
2022-10-27T09:02:46.853Z,23.38
2022-10-27T09:05:23.236Z,20.33
2022-10-27T09:07:53.619Z,21.17
2022-10-27T09:10:44.482Z,20.30
2022-10-27T09:13:35.494Z,19.58
2022-10-27T09:16:12.856Z,23.05
2022-10-27T09:18:53.427Z,22.77
2022-10-27T09:21:26.614Z,27.83
2022-10-27T09:24:04.092Z,21.35
2022-10-27T09:26:34.648Z,22.15
2022-10-27T09:29:17.150Z,27.25
2022-10-27T09:32:18.640Z,20.35
2022-10-27T09:35:01.768Z,21.00
2022-10-27T09:37:34.244Z,21.67
2022-10-27T09:40:04.874Z,21.13
2022-10-27T09:42:35.071Z,21.88
2022-10-27T09:45:17.815Z,21.17
2022-10-27T09:47:53.330Z,19.58
2022-10-27T09:50:48.330Z,20.92
2022-10-27T09:53:41.910Z,25.27
2022-10-27T09:56:18.723Z,21.38
2022-10-27T09:58:57.760Z,21.42
2022-10-27T10:04:10.239Z,19.92
2022-10-27T10:06:43.031Z,19.55
2022-10-27T10:09:31.368Z,18.92
2022-10-27T10:12:23.126Z,19.77
2022-10-27T10:15:12.489Z,19.15
2022-10-27T10:17:51.859Z,18.83
2022-10-27T10:20:38.370Z,19.15
2022-10-27T10:23:20.952Z,22.60
2022-10-27T10:25:52.969Z,19.73
2022-10-27T10:28:31.232Z,19.05
2022-10-27T10:31:05.162Z,21.20
2022-10-27T10:33:39.954Z,23.48
2022-10-27T10:36:25.160Z,19.33
2022-10-27T10:38:59.226Z,22.77
2022-10-27T10:41:31.224Z,22.95
2022-10-27T10:44:18.156Z,19.92
2022-10-27T10:46:54.774Z,21.75
2022-10-27T10:49:35.753Z,22.80
2022-10-27T10:52:18.170Z,22.70
2022-10-27T10:54:48.497Z,22.33
2022-10-27T10:57:33.190Z,24.80
2022-10-27T11:00:06.579Z,21.25
2022-10-27T11:02:37.279Z,20.13
2022-10-27T11:05:30.365Z,19.45
2022-10-27T11:08:01.416Z,18.67
2022-10-27T11:10:41.250Z,18.25
2022-10-27T11:13:20.529Z,19.60
2022-10-27T11:16:04.267Z,20.42
2022-10-27T11:18:54.609Z,19.58
2022-10-27T11:21:49.644Z,21.08
2022-10-27T11:24:31.791Z,17.75
2022-10-27T11:27:13.350Z,18.77
2022-10-27T11:30:06.267Z,19.77
2022-10-27T11:32:47.493Z,19.58
2022-10-27T11:35:27.021Z,19.85
2022-10-27T11:38:03.321Z,20.50
2022-10-27T11:41:07.170Z,18.92
2022-10-27T11:43:47.599Z,20.20
2022-10-27T11:46:34.304Z,19.23
2022-10-27T11:49:12.245Z,22.75
2022-10-27T11:52:05.997Z,21.17
2022-10-27T11:54:36.173Z,21.60
2022-10-27T11:57:40.412Z,21.38
2022-10-27T12:00:10.655Z,20.00
2022-10-27T12:03:08.420Z,20.20
2022-10-27T12:05:56.231Z,21.17
2022-10-27T12:08:36.269Z,20.95
2022-10-27T12:11:24.111Z,21.70
2022-10-27T12:14:09.430Z,20.20
2022-10-27T12:16:52.408Z,19.83
2022-10-27T12:19:30.093Z,20.27
2022-10-27T12:22:21.390Z,19.90
2022-10-27T12:24:59.797Z,20.73
2022-10-27T12:27:37.728Z,23.15
2022-10-27T12:30:20.697Z,22.73
2022-10-27T12:33:05.561Z,21.40
2022-10-27T12:35:48.062Z,21.23
2022-10-27T12:38:31.467Z,20.23
2022-10-27T12:41:29.397Z,20.52
2022-10-27T12:44:08.599Z,21.10
2022-10-27T12:47:05.788Z,23.23
2022-10-27T12:49:41.754Z,20.20
2022-10-27T12:52:24.181Z,20.65
2022-10-27T12:55:20.374Z,20.27
2022-10-27T12:57:56.248Z,22.60
2022-10-27T13:03:10.772Z,25.85
2022-10-27T13:05:47.891Z,22.92
2022-10-27T13:08:35.937Z,20.85
2022-10-27T13:11:44.400Z,20.02
2022-10-27T13:14:51.845Z,17.15
2022-10-27T13:17:31.496Z,17.42
2022-10-27T13:20:28.574Z,17.48
2022-10-27T13:23:10.868Z,17.77
2022-10-27T13:25:47.795Z,17.42
2022-10-27T13:28:26.375Z,18.45
2022-10-27T13:31:03.567Z,18.23
2022-10-27T13:33:40.193Z,16.85
2022-10-27T13:38:49.906Z,16.58
2022-10-27T13:41:57.261Z,17.02
2022-10-27T13:44:35.508Z,15.57
2022-10-27T13:47:05.998Z,16.20
2022-10-27T13:49:42.177Z,16.77
2022-10-27T13:52:23.795Z,18.23
2022-10-27T13:54:58.137Z,17.33
2022-10-27T13:58:05.276Z,17.42
2022-10-27T14:01:22.453Z,17.15
2022-10-27T14:04:16.666Z,15.80
2022-10-27T14:06:49.398Z,15.25
2022-10-27T14:09:45.995Z,15.95
2022-10-27T14:12:24.014Z,15.85
2022-10-27T14:15:23.249Z,16.77
2022-10-27T14:17:57.797Z,16.40
2022-10-27T14:20:38.606Z,17.48
2022-10-27T14:23:14.553Z,17.33
2022-10-27T14:25:47.058Z,17.55
2022-10-27T14:28:17.137Z,17.13
2022-10-27T14:31:07.403Z,19.25
2022-10-27T14:33:37.825Z,18.98
2022-10-27T14:36:30.601Z,17.85
2022-10-27T14:39:12.749Z,19.25
2022-10-27T14:41:47.146Z,20.70
2022-10-27T14:44:23.540Z,21.25
2022-10-27T14:46:58.804Z,19.63
2022-10-27T14:49:34.857Z,18.92
2022-10-27T14:52:09.639Z,19.40
2022-10-27T14:54:40.016Z,18.67
2022-10-27T14:57:32.027Z,20.35
2022-10-27T15:00:21.438Z,19.50
2022-10-27T15:02:53.205Z,19.70
2022-10-27T15:05:25.037Z,20.60
2022-10-27T15:07:58.234Z,21.35
2022-10-27T15:10:34.669Z,21.52
2022-10-27T15:13:12.509Z,22.00
2022-10-27T15:15:46.817Z,20.35
2022-10-27T15:18:36.458Z,21.70
2022-10-27T15:21:13.108Z,19.52
2022-10-27T15:26:24.455Z,18.95
2022-10-27T15:28:55.761Z,21.42
2022-10-27T15:31:26.161Z,25.55
2022-10-27T15:34:04.517Z,27.70
2022-10-27T15:36:34.774Z,23.77
2022-10-27T15:39:11.521Z,25.85
2022-10-27T15:41:52.195Z,27.42
2022-10-27T15:44:27.501Z,28.02
2022-10-27T15:46:57.639Z,26.88
2022-10-27T15:49:30.925Z,29.83
2022-10-27T15:52:04.830Z,29.08
2022-10-27T15:54:39.353Z,33.45
2022-10-27T15:57:30.778Z,33.40
2022-10-27T16:00:12.638Z,38.63
2022-10-27T16:02:48.418Z,40.55
2022-10-27T16:05:30.716Z,37.90
2022-10-27T16:08:20.735Z,36.97
2022-10-27T16:10:52.854Z,37.42
2022-10-27T16:13:25.374Z,41.95
2022-10-27T16:15:58.645Z,49.80
2022-10-27T16:18:28.770Z,63.72
2022-10-27T16:20:58.924Z,57.70
2022-10-27T16:23:29.055Z,43.35
2022-10-27T16:25:59.510Z,41.05
2022-10-27T16:28:37.596Z,40.03
2022-10-27T16:31:14.098Z,52.17
2022-10-27T16:33:47.999Z,42.60
2022-10-27T16:36:18.267Z,37.53
2022-10-27T16:38:48.430Z,36.33
2022-10-27T16:41:25.425Z,33.78
2022-10-27T16:43:55.932Z,31.25
2022-10-27T16:46:27.823Z,30.23
2022-10-27T16:48:57.959Z,25.13
2022-10-27T16:51:28.087Z,24.80
2022-10-27T16:53:58.603Z,23.58
2022-10-27T16:56:28.768Z,26.95
2022-10-27T16:58:58.961Z,25.25
2022-10-27T17:01:29.165Z,23.95
2022-10-27T17:04:01.103Z,24.45
2022-10-27T17:06:31.255Z,26.70
2022-10-27T17:09:01.668Z,25.48
2022-10-27T17:11:31.801Z,28.15
2022-10-27T17:14:01.958Z,28.77
2022-10-27T17:16:32.090Z,38.20
2022-10-27T17:19:02.331Z,42.63
2022-10-27T17:21:32.467Z,60.92
2022-10-27T17:24:03.219Z,69.82
2022-10-27T17:26:33.650Z,71.03
2022-10-27T17:29:05.346Z,65.38
2022-10-27T17:31:35.508Z,52.63
2022-10-27T17:34:05.789Z,53.28
2022-10-27T17:36:35.969Z,44.50
2022-10-27T17:39:06.240Z,43.58
2022-10-27T17:41:36.365Z,45.55
2022-10-27T17:44:06.684Z,44.28
2022-10-27T17:46:40.488Z,47.42
2022-10-27T17:49:12.569Z,37.88
2022-10-27T17:51:47.319Z,37.65
2022-10-27T17:54:17.957Z,38.72
2022-10-27T17:56:48.307Z,39.53
2022-10-27T17:59:20.356Z,39.35
2022-10-27T18:01:50.782Z,40.50
2022-10-27T18:04:21.039Z,40.85
2022-10-27T18:06:51.064Z,40.70
2022-10-27T18:09:21.112Z,43.05
2022-10-27T18:11:51.209Z,43.28
2022-10-27T18:14:23.642Z,38.20
2022-10-27T18:16:53.804Z,39.45
2022-10-27T18:19:24.077Z,40.97
2022-10-27T18:21:54.867Z,38.47
2022-10-27T18:24:24.983Z,36.78
2022-10-27T18:26:55.140Z,35.00
2022-10-27T18:29:26.801Z,31.25
2022-10-27T18:31:57.042Z,31.95
2022-10-27T18:34:27.260Z,28.63
2022-10-27T18:36:57.327Z,29.67
2022-10-27T18:39:27.606Z,27.92
2022-10-27T18:44:32.895Z,27.90
2022-10-27T18:47:03.004Z,27.88
2022-10-27T18:49:47.514Z,29.88
2022-10-27T18:52:18.724Z,29.58
2022-10-27T18:54:49.254Z,29.55
2022-10-27T18:57:19.377Z,28.67
2022-10-27T18:59:49.689Z,30.35
2022-10-27T19:02:19.953Z,30.50
2022-10-27T19:04:50.031Z,33.45
2022-10-27T19:07:20.154Z,31.25
2022-10-27T19:09:50.398Z,31.98
2022-10-27T19:12:20.693Z,30.70
2022-10-27T19:14:50.774Z,29.67
2022-10-27T19:17:20.990Z,32.22
2022-10-27T19:19:53.079Z,29.42
2022-10-27T19:22:23.490Z,31.98
2022-10-27T19:24:54.350Z,30.90
2022-10-27T19:27:24.560Z,31.05
2022-10-27T19:29:54.690Z,31.02
2022-10-27T19:32:26.972Z,30.58
2022-10-27T19:35:05.356Z,31.85
2022-10-27T19:37:35.449Z,35.58
2022-10-27T19:40:07.384Z,35.25
2022-10-27T19:42:37.643Z,36.72
2022-10-27T19:45:08.247Z,36.33
2022-10-27T19:47:41.508Z,38.10
2022-10-27T19:50:14.209Z,38.05
2022-10-27T19:52:48.489Z,38.75
2022-10-27T19:55:22.453Z,34.50
2022-10-27T19:57:53.700Z,31.33
2022-10-27T20:00:24.974Z,37.28
2022-10-27T20:02:57.089Z,38.40
2022-10-27T20:05:30.258Z,31.70
2022-10-27T20:08:01.528Z,32.90
2022-10-27T20:10:31.704Z,34.80
2022-10-27T20:13:03.358Z,42.80
2022-10-27T20:15:33.796Z,47.63
2022-10-27T20:18:03.942Z,50.90
2022-10-27T20:20:34.264Z,42.40
2022-10-27T20:23:07.696Z,37.25
2022-10-27T20:25:40.979Z,34.80
2022-10-27T20:28:11.434Z,40.17
2022-10-27T20:30:41.718Z,34.80
2022-10-27T20:33:11.963Z,32.60
2022-10-27T20:35:42.525Z,32.33
2022-10-27T20:38:12.761Z,34.65
2022-10-27T20:40:43.340Z,38.92
2022-10-27T20:43:13.678Z,37.35
2022-10-27T20:45:43.830Z,33.45
2022-10-27T20:48:13.925Z,32.67
2022-10-27T20:50:44.121Z,29.80
2022-10-27T20:53:14.228Z,30.02
2022-10-27T20:55:44.399Z,31.98
2022-10-27T20:58:14.556Z,33.10
2022-10-27T21:00:44.796Z,35.47
2022-10-27T21:03:15.471Z,32.38
2022-10-27T21:05:47.136Z,30.63
2022-10-27T21:08:18.431Z,29.55
2022-10-27T21:10:50.624Z,30.25
2022-10-27T21:13:20.719Z,28.40
2022-10-27T21:15:59.456Z,28.00
2022-10-27T21:18:29.831Z,28.25
2022-10-27T21:21:00.046Z,25.98
2022-10-27T21:23:30.674Z,27.70
2022-10-27T21:26:03.625Z,28.98
2022-10-27T21:28:41.526Z,30.27
2022-10-27T21:31:14.870Z,39.72
2022-10-27T21:33:46.386Z,38.22
2022-10-27T21:36:16.887Z,38.35
2022-10-27T21:38:50.168Z,35.83
2022-10-27T21:41:23.498Z,30.65
2022-10-27T21:43:55.679Z,29.05
2022-10-27T21:46:27.982Z,29.60
2022-10-27T21:49:00.340Z,27.77
2022-10-27T21:51:31.260Z,27.80
2022-10-27T21:54:03.271Z,24.02
2022-10-27T21:56:35.667Z,22.88
2022-10-27T21:59:05.858Z,26.05
2022-10-27T22:01:36.663Z,24.67
2022-10-27T22:04:07.095Z,25.25
2022-10-27T22:06:37.298Z,27.98
2022-10-27T22:09:07.560Z,29.90
2022-10-27T22:11:38.102Z,31.65
2022-10-27T22:14:08.305Z,39.55
2022-10-27T22:16:38.618Z,39.42
2022-10-27T22:19:11.677Z,34.83
2022-10-27T22:21:41.867Z,33.97
2022-10-27T22:24:12.029Z,33.45
2022-10-27T22:26:42.488Z,31.13
2022-10-27T22:29:12.664Z,26.73
2022-10-27T22:31:42.739Z,25.70
2022-10-27T22:34:13.046Z,27.73
2022-10-27T22:36:43.234Z,30.48
2022-10-27T22:39:13.890Z,26.90
2022-10-27T22:41:44.202Z,25.60
2022-10-27T22:44:14.649Z,24.48
2022-10-27T22:46:45.104Z,25.10
2022-10-27T22:49:15.284Z,22.52
2022-10-27T22:51:48.667Z,21.25
2022-10-27T22:54:19.483Z,21.52
2022-10-27T22:56:49.890Z,21.73
2022-10-27T22:59:20.129Z,24.10
2022-10-27T23:01:50.375Z,24.63
2022-10-27T23:04:20.653Z,25.55
2022-10-27T23:06:50.931Z,24.77
2022-10-27T23:09:22.457Z,24.05
2022-10-27T23:11:52.616Z,26.30
2022-10-27T23:14:22.986Z,28.17
2022-10-27T23:16:53.567Z,29.52
2022-10-27T23:19:23.869Z,30.85
2022-10-27T23:21:54.024Z,28.88
2022-10-27T23:24:25.028Z,25.83
2022-10-27T23:26:55.186Z,23.30
2022-10-27T23:29:25.693Z,24.00
2022-10-27T23:31:55.759Z,25.00
2022-10-27T23:34:26.053Z,21.50
2022-10-27T23:36:56.314Z,21.85
2022-10-27T23:39:26.825Z,20.73
2022-10-27T23:41:56.947Z,20.27
2022-10-27T23:44:27.239Z,21.13
2022-10-27T23:46:57.359Z,20.02
2022-10-27T23:49:27.453Z,20.33
2022-10-27T23:51:57.545Z,22.45
2022-10-27T23:54:27.679Z,20.52
2022-10-27T23:56:57.867Z,20.73
2022-10-27T23:59:28.042Z,22.55
